createdAt,value
2022-11-27T00:02:20.503Z,6.70
2022-11-27T00:04:47.036Z,5.55
2022-11-27T00:07:13.678Z,6.18
2022-11-27T00:09:40.434Z,6.00
2022-11-27T00:12:07.247Z,6.18
2022-11-27T00:14:33.755Z,6.22
2022-11-27T00:17:00.988Z,5.82
2022-11-27T00:19:27.641Z,8.18
2022-11-27T00:21:54.191Z,5.25
2022-11-27T00:24:20.688Z,4.65
2022-11-27T00:26:49.725Z,4.70
2022-11-27T00:29:16.244Z,6.45
2022-11-27T00:31:43.424Z,4.95
2022-11-27T00:34:11.481Z,4.78
2022-11-27T00:36:39.280Z,4.60
2022-11-27T00:39:06.985Z,4.70
2022-11-27T00:41:34.031Z,4.80
2022-11-27T00:44:00.577Z,4.75
2022-11-27T00:46:30.240Z,4.18
2022-11-27T00:49:03.169Z,4.90
2022-11-27T00:51:30.229Z,6.10
2022-11-27T00:53:57.397Z,4.65
2022-11-27T00:56:27.467Z,4.70
2022-11-27T00:58:54.456Z,5.38
2022-11-27T01:01:27.596Z,3.17
2022-11-27T01:03:56.161Z,4.95
2022-11-27T01:06:22.966Z,4.00
2022-11-27T01:08:49.578Z,4.47
2022-11-27T01:11:19.227Z,4.65
2022-11-27T01:13:46.511Z,4.22
2022-11-27T01:16:16.425Z,4.28
2022-11-27T01:18:45.117Z,4.80
2022-11-27T01:21:13.172Z,4.47
2022-11-27T01:23:40.188Z,5.43
2022-11-27T01:26:08.577Z,4.05
2022-11-27T01:28:36.076Z,5.38
2022-11-27T01:31:08.091Z,4.18
2022-11-27T01:33:35.136Z,4.60
2022-11-27T01:36:04.118Z,4.82
2022-11-27T01:38:31.562Z,4.80
2022-11-27T01:41:16.733Z,5.15
2022-11-27T01:43:48.002Z,4.43
2022-11-27T01:46:37.415Z,3.97
2022-11-27T01:49:22.359Z,4.97
2022-11-27T01:52:09.032Z,4.65
2022-11-27T01:54:45.566Z,4.00
2022-11-27T01:57:18.076Z,4.43
2022-11-27T01:59:46.740Z,5.00
2022-11-27T02:02:13.505Z,4.72
2022-11-27T02:04:40.261Z,4.05
2022-11-27T02:07:06.983Z,5.10
2022-11-27T02:09:33.857Z,4.63
2022-11-27T02:12:03.104Z,4.50
2022-11-27T02:14:32.439Z,4.60
2022-11-27T02:17:22.016Z,4.70
2022-11-27T02:20:03.812Z,4.50
2022-11-27T02:22:42.461Z,4.43
2022-11-27T02:25:42.884Z,4.47
2022-11-27T02:28:45.553Z,4.35
2022-11-27T02:31:47.644Z,4.00
2022-11-27T02:34:32.704Z,4.40
2022-11-27T02:37:31.824Z,3.95
2022-11-27T02:40:34.035Z,4.45
2022-11-27T02:43:09.563Z,3.90
2022-11-27T02:45:44.143Z,4.60
2022-11-27T02:48:13.716Z,3.55
2022-11-27T02:50:43.212Z,4.85
2022-11-27T02:53:19.335Z,3.55
2022-11-27T02:55:48.466Z,4.28
2022-11-27T02:58:18.143Z,4.07
2022-11-27T03:00:46.460Z,4.75
2022-11-27T03:03:18.221Z,5.45
2022-11-27T03:05:48.112Z,4.03
2022-11-27T03:08:17.681Z,4.07
2022-11-27T03:10:56.762Z,5.18
2022-11-27T03:13:23.828Z,4.70
2022-11-27T03:15:54.380Z,5.63
2022-11-27T03:18:34.897Z,4.43
2022-11-27T03:21:19.013Z,4.07
2022-11-27T03:23:45.703Z,5.13
2022-11-27T03:26:12.175Z,4.28
2022-11-27T03:28:39.469Z,4.43
2022-11-27T03:31:06.005Z,4.82
2022-11-27T03:33:32.963Z,5.60
2022-11-27T03:35:59.447Z,3.95
2022-11-27T03:38:25.972Z,4.45
2022-11-27T03:41:05.970Z,4.15
2022-11-27T03:43:41.889Z,4.43
2022-11-27T03:46:19.728Z,4.97
2022-11-27T03:49:08.381Z,4.70
2022-11-27T03:51:41.150Z,3.90
2022-11-27T03:54:07.541Z,4.72
2022-11-27T03:56:38.065Z,4.88
2022-11-27T03:59:13.763Z,4.65
2022-11-27T04:01:41.010Z,5.63
2022-11-27T04:04:07.975Z,7.70
2022-11-27T04:06:34.527Z,5.75
2022-11-27T04:09:01.130Z,5.80
2022-11-27T04:11:27.688Z,5.03
2022-11-27T04:13:54.173Z,4.90
2022-11-27T04:16:20.730Z,5.53
2022-11-27T04:18:47.264Z,4.55
2022-11-27T04:21:13.810Z,4.47
2022-11-27T04:23:40.825Z,4.82
2022-11-27T04:26:07.264Z,4.57
2022-11-27T04:28:33.852Z,5.05
2022-11-27T04:31:00.321Z,5.47
2022-11-27T04:33:27.275Z,5.38
2022-11-27T04:35:54.139Z,5.72
2022-11-27T04:38:21.546Z,5.97
2022-11-27T04:40:48.532Z,6.00
2022-11-27T04:43:15.056Z,5.25
2022-11-27T04:45:41.586Z,3.97
2022-11-27T04:48:08.070Z,2.30
2022-11-27T04:50:34.557Z,5.13
2022-11-27T04:53:01.130Z,4.85
2022-11-27T04:55:27.688Z,5.45
2022-11-27T04:57:54.171Z,6.10
2022-11-27T05:00:21.226Z,5.45
2022-11-27T05:02:47.782Z,5.15
2022-11-27T05:05:14.350Z,5.88
2022-11-27T05:07:40.815Z,5.00
2022-11-27T05:10:08.186Z,4.68
2022-11-27T05:12:34.757Z,4.85
2022-11-27T05:15:04.479Z,5.72
2022-11-27T05:17:31.448Z,5.45
2022-11-27T05:19:57.903Z,5.35
2022-11-27T05:22:24.361Z,5.10
2022-11-27T05:24:50.872Z,5.22
2022-11-27T05:27:17.316Z,4.45
2022-11-27T05:29:43.843Z,5.43
2022-11-27T05:32:10.335Z,5.13
2022-11-27T05:34:36.798Z,4.82
2022-11-27T05:37:03.291Z,5.32
2022-11-27T05:39:29.766Z,4.10
2022-11-27T05:41:56.289Z,4.65
2022-11-27T05:44:22.789Z,4.85
2022-11-27T05:46:49.313Z,4.88
2022-11-27T05:49:16.331Z,5.10
2022-11-27T05:51:50.359Z,4.53
2022-11-27T05:54:17.538Z,5.35
2022-11-27T05:56:44.057Z,6.47
2022-11-27T05:59:10.931Z,5.55
2022-11-27T06:01:37.578Z,5.13
2022-11-27T06:04:04.272Z,5.93
2022-11-27T06:06:30.908Z,5.07
2022-11-27T06:08:57.425Z,4.97
2022-11-27T06:11:24.163Z,4.75
2022-11-27T06:13:51.152Z,5.20
2022-11-27T06:16:20.544Z,4.85
2022-11-27T06:18:50.560Z,5.40
2022-11-27T06:21:17.440Z,4.80
2022-11-27T06:23:44.589Z,5.22
2022-11-27T06:26:19.599Z,5.20
2022-11-27T06:28:47.549Z,5.60
2022-11-27T06:31:18.255Z,5.07
2022-11-27T06:33:46.603Z,5.35
2022-11-27T06:36:13.335Z,6.05
2022-11-27T06:38:39.990Z,5.47
2022-11-27T06:41:11.816Z,5.10
2022-11-27T06:43:38.651Z,5.65
2022-11-27T06:46:06.813Z,6.05
2022-11-27T06:48:34.160Z,5.82
2022-11-27T06:51:06.184Z,5.10
2022-11-27T06:53:35.865Z,4.80
2022-11-27T06:56:03.963Z,4.85
2022-11-27T06:58:31.379Z,5.05
2022-11-27T07:01:02.978Z,5.20
2022-11-27T07:03:30.075Z,4.90
2022-11-27T07:05:59.970Z,5.60
2022-11-27T07:08:26.503Z,6.13
2022-11-27T07:10:53.036Z,4.93
2022-11-27T07:13:19.775Z,5.65
2022-11-27T07:15:46.549Z,6.20
2022-11-27T07:18:13.094Z,5.78
2022-11-27T07:20:39.866Z,5.82
2022-11-27T07:23:06.626Z,5.60
2022-11-27T07:25:33.578Z,5.53
2022-11-27T07:28:00.217Z,5.45
2022-11-27T07:30:26.925Z,6.30
2022-11-27T07:32:53.394Z,6.50
2022-11-27T07:35:19.956Z,5.70
2022-11-27T07:37:46.407Z,5.00
2022-11-27T07:40:14.950Z,5.05
2022-11-27T07:42:41.680Z,5.65
2022-11-27T07:45:09.006Z,5.50
2022-11-27T07:47:35.606Z,5.10
2022-11-27T07:50:02.502Z,5.75
2022-11-27T07:52:29.038Z,5.90
2022-11-27T07:54:55.579Z,5.93
2022-11-27T07:57:22.086Z,6.40
2022-11-27T07:59:48.594Z,5.93
2022-11-27T08:02:15.511Z,5.93
2022-11-27T08:04:42.425Z,5.88
2022-11-27T08:07:09.118Z,5.60
2022-11-27T08:09:35.683Z,5.50
2022-11-27T08:12:02.116Z,6.55
2022-11-27T08:14:28.641Z,5.93
2022-11-27T08:16:55.352Z,5.72
2022-11-27T08:19:22.211Z,5.47
2022-11-27T08:21:48.726Z,6.03
2022-11-27T08:24:15.180Z,5.53
2022-11-27T08:26:42.311Z,5.57
2022-11-27T08:29:12.798Z,5.43
2022-11-27T08:31:39.764Z,5.63
2022-11-27T08:34:06.418Z,4.88
2022-11-27T08:36:32.963Z,4.53
2022-11-27T08:38:59.470Z,3.20
2022-11-27T08:41:25.906Z,2.83
2022-11-27T08:43:52.429Z,4.65
2022-11-27T08:46:19.072Z,5.53
2022-11-27T08:48:45.604Z,2.47
2022-11-27T08:51:15.454Z,4.93
2022-11-27T08:53:44.379Z,5.20
2022-11-27T08:56:23.600Z,4.85
2022-11-27T08:58:50.571Z,3.90
2022-11-27T09:01:20.245Z,5.53
2022-11-27T09:03:47.150Z,5.47
2022-11-27T09:06:16.834Z,5.90
2022-11-27T09:08:44.267Z,4.22
2022-11-27T09:11:13.281Z,5.43
2022-11-27T09:13:40.455Z,5.53
2022-11-27T09:16:11.228Z,5.38
2022-11-27T09:18:37.777Z,3.30
2022-11-27T09:21:07.421Z,5.75
2022-11-27T09:23:34.493Z,4.75
2022-11-27T09:26:02.413Z,5.05
2022-11-27T09:28:31.589Z,4.50
2022-11-27T09:31:00.938Z,4.90
2022-11-27T09:33:29.136Z,4.90
2022-11-27T09:35:55.751Z,4.90
2022-11-27T09:38:23.640Z,4.07
2022-11-27T09:40:52.491Z,4.95
2022-11-27T09:43:27.691Z,4.07
2022-11-27T09:46:00.831Z,4.05
2022-11-27T09:48:48.809Z,4.45
2022-11-27T09:51:31.928Z,4.47
2022-11-27T09:54:05.688Z,3.55
2022-11-27T09:56:35.665Z,3.97
2022-11-27T09:59:03.985Z,4.45
2022-11-27T10:01:42.020Z,4.50
2022-11-27T10:04:15.041Z,4.40
2022-11-27T10:07:01.788Z,4.22
2022-11-27T10:09:49.268Z,4.15
2022-11-27T10:12:58.362Z,3.05
2022-11-27T10:15:27.831Z,4.00
2022-11-27T10:18:08.928Z,3.20
2022-11-27T10:20:41.067Z,3.70
2022-11-27T10:23:25.584Z,3.58
2022-11-27T10:25:57.141Z,3.13
2022-11-27T10:28:46.132Z,3.70
2022-11-27T10:31:18.563Z,3.30
2022-11-27T10:33:51.902Z,4.03
2022-11-27T10:36:29.860Z,4.15
2022-11-27T10:38:58.181Z,3.88
2022-11-27T10:44:29.564Z,3.53
2022-11-27T10:47:02.804Z,3.50
2022-11-27T10:49:29.761Z,3.53
2022-11-27T10:51:56.548Z,3.33
2022-11-27T10:54:37.354Z,1.48
2022-11-27T10:57:28.870Z,2.15
2022-11-27T11:00:07.843Z,3.03
2022-11-27T11:02:38.461Z,3.38
2022-11-27T11:05:34.680Z,2.33
2022-11-27T11:08:06.664Z,2.85
2022-11-27T11:10:38.489Z,3.33
2022-11-27T11:13:14.470Z,2.90
2022-11-27T11:16:29.394Z,3.40
2022-11-27T11:18:58.897Z,3.47
2022-11-27T11:21:32.153Z,3.15
2022-11-27T11:24:14.423Z,3.38
2022-11-27T11:26:47.610Z,3.30
2022-11-27T11:29:45.120Z,3.30
2022-11-27T11:32:16.770Z,2.95
2022-11-27T11:34:53.994Z,3.35
2022-11-27T11:37:30.449Z,4.15
2022-11-27T11:40:05.074Z,3.00
2022-11-27T11:42:34.068Z,3.40
2022-11-27T11:45:13.311Z,4.03
2022-11-27T11:47:48.180Z,3.58
2022-11-27T11:50:27.021Z,3.50
2022-11-27T11:53:12.951Z,3.80
2022-11-27T11:55:54.827Z,2.88
2022-11-27T11:58:38.434Z,3.47
2022-11-27T12:01:29.514Z,3.72
2022-11-27T12:04:07.583Z,3.67
2022-11-27T12:06:37.396Z,4.20
2022-11-27T12:09:18.968Z,3.53
2022-11-27T12:12:06.857Z,3.90
2022-11-27T12:14:55.360Z,4.55
2022-11-27T12:17:40.738Z,5.18
2022-11-27T12:20:10.180Z,8.52
2022-11-27T12:23:00.364Z,8.80
2022-11-27T12:25:51.638Z,4.30
2022-11-27T12:28:18.811Z,4.38
2022-11-27T12:31:08.984Z,3.08
2022-11-27T12:34:06.129Z,3.50
2022-11-27T12:36:51.271Z,3.25
2022-11-27T12:39:29.976Z,3.85
2022-11-27T12:41:59.362Z,3.30
2022-11-27T12:44:30.494Z,3.42
2022-11-27T12:47:03.044Z,3.95
2022-11-27T12:49:40.049Z,3.17
2022-11-27T12:52:31.570Z,3.47
2022-11-27T12:55:15.940Z,3.30
2022-11-27T12:57:56.762Z,2.60
2022-11-27T13:00:27.066Z,4.10
2022-11-27T13:03:06.507Z,3.25
2022-11-27T13:05:45.414Z,4.03
2022-11-27T13:08:38.824Z,3.55
2022-11-27T13:11:10.065Z,3.65
2022-11-27T13:13:50.097Z,3.78
2022-11-27T13:16:35.274Z,3.72
2022-11-27T13:19:22.648Z,3.72
2022-11-27T13:21:50.451Z,3.53
2022-11-27T13:24:17.002Z,3.70
2022-11-27T13:27:15.851Z,3.70
2022-11-27T13:29:59.729Z,3.40
2022-11-27T13:32:33.412Z,3.85
2022-11-27T13:35:04.102Z,3.83
2022-11-27T13:37:32.512Z,3.78
2022-11-27T13:40:12.717Z,3.88
2022-11-27T13:42:45.377Z,3.72
2022-11-27T13:45:21.750Z,3.80
2022-11-27T13:47:50.626Z,3.60
2022-11-27T13:50:20.463Z,3.92
2022-11-27T13:52:54.684Z,4.85
2022-11-27T13:55:38.241Z,3.60
2022-11-27T13:58:06.847Z,3.50
2022-11-27T14:00:40.144Z,4.00
2022-11-27T14:03:13.068Z,3.63
2022-11-27T14:05:45.094Z,4.72
2022-11-27T14:08:31.492Z,4.05
2022-11-27T14:11:02.601Z,5.05
2022-11-27T14:13:40.971Z,5.43
2022-11-27T14:16:16.740Z,5.13
